Beaver Island, MI (49782)

11:30 PM EDT on August 03, 2015 (GMT -0400)
Greene's Bay | | Change Station
CLOSE
Current Station
Personal Weather Station
Location: Beaver Island, MI
Elevation: 583 ft
Nearby Weather Stations

Elev 583 ft 45.63 °N, 85.61 °W | Updated 10 minutes ago

Overcast
Overcast
64.7 °F
Feels Like 64.7 °F
N
0.0
Wind Variable Wind from West
Gusts 0.0 mph

Today
High -- | Low -- °F
--% Chance of Precip.
Yesterday
High -- | Low -- °F
Precip. -- in
6:27 AM 9:08 PM
Waning Gibbous, 81% visible
Pressure 29.83 in
Visibility 7.0 miles
Clouds Scattered Clouds 6500 ft
Mostly Cloudy 9000 ft
Overcast 11000 ft
Dew Point 58 °F
Humidity 78%
Rainfall 0.00 in
Snow Depth Not available.
UV 0 out of 12
Pollen 5.40 out of 12
Air Quality Not available.
Flu Activity Not available.
METAR KSJX 040317Z AUTO 00000KT 7SM SCT065 BKN090 OVC110 15/14 A2983 RMK AO2 T01490141

More Conditions Fewer Conditions

Pressure 29.83 in
Visibility 7.0 miles
Clouds Scattered Clouds 6500 ft
Mostly Cloudy 9000 ft
Overcast 11000 ft
Dew Point 58 °F
Humidity 78%
Rainfall 0.00 in
Snow Depth Not available.
UV 0 out of 12
Pollen 5.40 out of 12
Air Quality Not available.
Flu Activity Not available.
METAR KSJX 040317Z AUTO 00000KT 7SM SCT065 BKN090 OVC110 15/14 A2983 RMK AO2 T01490141

More Conditions Fewer Conditions

Nowcast | as of 11:00 PM EDT on August 3, 2015

At 12 am...partly cloudy. Chance of showers. Temperature 60. Northwest winds 5 mph. At 2 am...mostly cloudy. Chance of showers. Temperature 59. Northwest winds 5 mph. At 4 am...mostly cloudy. Chance of showers. Temperature 59. Northwest winds 6 mph. At 6 am...mostly cloudy. Chance of showers. Temperature 58. Northwest winds 6 mph.

×

10-Day Weather Forecast

×

Almanac

Astronomy

Aug. 03, 2015 Rise Set
Actual Time
Civil Twilight
Nautical Twilight
Astronomical Twilight
Moon
Length of Visible Light
Length of Day
Tomorrow will be .
, % of the Moon is Illuminated

Today's Extremes

State Highs State Lows

Community

WunderPhotos

Upload Photos

1,843,838 photos uploaded!

WunderBlogs® & News

Nearby

Air Quality

  Air Quality AQ Index Pollutant
Not available.

Snow Depth

Station Depth Elevation

Earthquake Activity

City Distance Mag. Time & Date
Minimum magnitude displayed is 2.5.

Coastal Water Temperatures

Place Temperature

Stations

Nearby Weather Stations

Station Location Temp. Windchill Dew Point Humidity Wind Precip. Elev Updated Type